Clearfield, South Dakota
Current Conditions -  °F | °C
As of 1:53 PM on Wednesday 28 Jan 2015 (Local Time) from KICR Reporting Station
Clear Clear  
Wind Chill: 63°   Ceiling: Unl
Heat Index: 63°   Visibility: 10mi
Dew Point: 33°   Wind: 24mph
Humidity: 33%   Direction: 330°NNW
Pressure: 29.73"   Gusts: NA
Location:  43.2923°N, 99.8934°W
Report Text: KICR 281953Z AUTO 33021KT 10SM CLR 17/01 A2973 RMK AO2 PK WND 32028/1854 SLP066 T01720006
Loading
Personal Weather Stations






























Interactive Weather Map New forecast layout! Learn more

10-Day Weather Forecast

Advertisements
Track Severe Weather on mobile